createdAt,value
2018-08-04T00:00:40.396Z,5.17
2018-08-04T00:03:08.770Z,6.83
2018-08-04T00:05:37.138Z,6.33
2018-08-04T00:08:05.662Z,6.03
2018-08-04T00:10:34.028Z,7.73
2018-08-04T00:13:02.390Z,6.13
2018-08-04T00:15:30.719Z,6.17
2018-08-04T00:17:59.023Z,6.10
2018-08-04T00:20:28.069Z,5.90
2018-08-04T00:22:56.418Z,6.30
2018-08-04T00:25:24.767Z,6.20
2018-08-04T00:27:53.190Z,5.70
2018-08-04T00:30:21.581Z,5.97
2018-08-04T00:32:49.898Z,5.53
2018-08-04T00:35:18.302Z,5.80
2018-08-04T00:37:46.752Z,7.47
2018-08-04T00:40:15.118Z,6.60
2018-08-04T00:42:43.467Z,7.30
2018-08-04T00:45:11.850Z,6.73
2018-08-04T00:47:40.176Z,6.50
2018-08-04T00:50:09.859Z,7.80
2018-08-04T00:52:38.252Z,6.57
2018-08-04T00:55:06.908Z,6.47
2018-08-04T00:57:35.699Z,5.57
2018-08-04T01:00:04.987Z,6.00
2018-08-04T01:02:40.075Z,6.93
2018-08-04T01:05:08.439Z,8.47
2018-08-04T01:07:36.775Z,7.97
2018-08-04T01:10:05.669Z,6.97
2018-08-04T01:12:34.476Z,6.17
2018-08-04T01:15:02.898Z,5.83
2018-08-04T01:17:31.845Z,7.80
2018-08-04T01:20:03.532Z,6.27
2018-08-04T01:22:32.539Z,8.10
2018-08-04T01:25:00.869Z,7.00
2018-08-04T01:27:29.207Z,7.57
2018-08-04T01:29:57.537Z,6.00
2018-08-04T01:32:25.912Z,6.07
2018-08-04T01:34:54.311Z,6.60
2018-08-04T01:37:22.629Z,6.10
2018-08-04T01:39:50.965Z,5.97
2018-08-04T01:42:19.819Z,7.83
2018-08-04T01:44:48.215Z,7.87
2018-08-04T01:47:16.592Z,5.50
2018-08-04T01:49:44.936Z,6.23
2018-08-04T01:52:13.293Z,7.03
2018-08-04T01:54:41.674Z,6.20
2018-08-04T01:57:10.138Z,5.77
2018-08-04T01:59:38.484Z,6.70
2018-08-04T02:02:06.898Z,6.60
2018-08-04T02:04:35.245Z,6.80
2018-08-04T02:07:03.614Z,7.13
2018-08-04T02:09:32.105Z,8.00
2018-08-04T02:12:00.486Z,8.00
2018-08-04T02:14:28.800Z,7.63
2018-08-04T02:16:57.143Z,7.03
2018-08-04T02:19:25.558Z,8.10
2018-08-04T02:21:53.919Z,5.80
2018-08-04T02:24:22.293Z,6.27
2018-08-04T02:26:50.365Z,6.27
2018-08-04T02:29:18.702Z,8.70
2018-08-04T02:31:47.051Z,7.40
2018-08-04T02:34:15.492Z,7.47
2018-08-04T02:36:43.837Z,8.07
2018-08-04T02:39:12.144Z,7.70
2018-08-04T02:41:40.523Z,10.23
2018-08-04T02:44:08.875Z,10.13
2018-08-04T02:46:37.227Z,10.73
2018-08-04T02:49:05.353Z,9.93
2018-08-04T02:51:33.696Z,10.53
2018-08-04T02:54:01.915Z,7.90
2018-08-04T02:56:30.383Z,8.50
2018-08-04T02:58:58.740Z,7.87
2018-08-04T03:01:27.100Z,10.20
2018-08-04T03:03:55.536Z,7.97
2018-08-04T03:06:23.917Z,7.27
2018-08-04T03:08:52.306Z,7.93
2018-08-04T03:11:20.640Z,8.33
2018-08-04T03:13:49.009Z,5.97
2018-08-04T03:16:17.380Z,7.53
2018-08-04T03:18:46.307Z,6.80
2018-08-04T03:21:14.645Z,8.93
2018-08-04T03:23:43.610Z,9.40
2018-08-04T03:26:11.968Z,6.87
2018-08-04T03:28:40.394Z,7.07
2018-08-04T03:31:08.746Z,7.07
2018-08-04T03:33:37.136Z,8.30
2018-08-04T03:36:06.130Z,8.83
2018-08-04T03:38:34.499Z,8.00
2018-08-04T03:41:03.043Z,6.60
2018-08-04T03:43:31.390Z,7.53
2018-08-04T03:45:59.736Z,8.43
2018-08-04T03:48:28.059Z,7.03
2018-08-04T03:50:56.418Z,7.77
2018-08-04T03:53:24.768Z,8.47
2018-08-04T03:55:53.173Z,13.07
2018-08-04T03:58:21.540Z,8.10
2018-08-04T04:00:50.286Z,7.33
2018-08-04T04:03:18.726Z,7.17
2018-08-04T04:05:47.102Z,8.20
2018-08-04T04:08:15.484Z,7.47
2018-08-04T04:10:43.836Z,6.43
2018-08-04T04:13:12.200Z,8.63
2018-08-04T04:15:40.553Z,8.10
2018-08-04T04:18:08.992Z,8.73
2018-08-04T04:20:37.380Z,7.50
2018-08-04T04:23:05.766Z,9.20
2018-08-04T04:25:34.100Z,6.87
2018-08-04T04:28:02.496Z,6.83
2018-08-04T04:30:30.818Z,7.80
2018-08-04T04:32:59.200Z,7.13
2018-08-04T04:35:27.558Z,7.40
2018-08-04T04:37:55.866Z,7.90
2018-08-04T04:40:24.211Z,6.57
2018-08-04T04:42:52.532Z,8.97
2018-08-04T04:45:20.852Z,8.10
2018-08-04T04:47:49.263Z,7.87
2018-08-04T04:50:17.601Z,9.33
2018-08-04T04:52:45.962Z,6.90
2018-08-04T04:55:14.318Z,6.93
2018-08-04T04:57:42.633Z,9.40
2018-08-04T05:00:11.010Z,9.30
2018-08-04T05:02:39.326Z,9.73
2018-08-04T05:05:08.283Z,7.70
2018-08-04T05:07:36.823Z,7.97
2018-08-04T05:10:05.601Z,7.57
2018-08-04T05:12:34.188Z,8.53
2018-08-04T05:15:02.560Z,7.00
2018-08-04T05:17:30.920Z,9.40
2018-08-04T05:19:59.598Z,10.70
2018-08-04T05:22:28.098Z,10.77
2018-08-04T05:24:56.553Z,9.53
2018-08-04T05:27:24.799Z,9.57
2018-08-04T05:29:53.172Z,9.17
2018-08-04T05:32:22.138Z,7.63
2018-08-04T05:34:50.512Z,8.70
2018-08-04T05:37:18.897Z,9.13
2018-08-04T05:39:47.230Z,9.80
2018-08-04T05:42:15.646Z,10.47
2018-08-04T05:44:43.966Z,12.47
2018-08-04T05:47:12.318Z,12.63
2018-08-04T05:49:40.680Z,12.73
2018-08-04T05:52:09.013Z,12.37
2018-08-04T05:54:37.058Z,11.43
2018-08-04T05:57:05.504Z,13.43
2018-08-04T05:59:33.965Z,10.50
2018-08-04T06:02:02.364Z,9.20
2018-08-04T06:04:30.708Z,10.53
2018-08-04T06:06:59.113Z,9.33
2018-08-04T06:09:28.206Z,12.03
2018-08-04T06:11:56.576Z,11.07
2018-08-04T06:14:25.047Z,10.87
2018-08-04T06:16:53.174Z,11.43
2018-08-04T06:19:21.628Z,11.83
2018-08-04T06:21:50.122Z,12.10
2018-08-04T06:24:18.470Z,13.33
2018-08-04T06:26:46.842Z,9.47
2018-08-04T06:29:15.151Z,9.93
2018-08-04T06:31:43.487Z,12.40
2018-08-04T06:34:11.888Z,11.17
2018-08-04T06:36:40.290Z,11.70
2018-08-04T06:39:08.903Z,11.13
2018-08-04T06:41:37.336Z,10.27
2018-08-04T06:44:06.276Z,11.03
2018-08-04T06:46:34.616Z,11.77
2018-08-04T06:49:02.973Z,11.73
2018-08-04T06:51:31.226Z,12.27
2018-08-04T06:53:59.630Z,11.97
2018-08-04T06:56:28.010Z,11.50
2018-08-04T06:58:56.388Z,10.93
2018-08-04T07:01:24.764Z,11.77
2018-08-04T07:03:53.250Z,10.40
2018-08-04T07:06:21.750Z,10.77
2018-08-04T07:08:50.099Z,10.30
2018-08-04T07:11:18.582Z,10.20
2018-08-04T07:13:47.123Z,9.83
2018-08-04T07:16:15.470Z,9.83
2018-08-04T07:18:43.945Z,8.87
2018-08-04T07:21:12.788Z,8.57
2018-08-04T07:23:41.128Z,9.07
2018-08-04T07:26:09.486Z,8.00
2018-08-04T07:28:38.540Z,9.73
2018-08-04T07:31:07.808Z,10.30
2018-08-04T07:33:36.216Z,9.67
2018-08-04T07:36:04.586Z,8.17
2018-08-04T07:38:32.929Z,8.53
2018-08-04T07:41:01.371Z,9.27
2018-08-04T07:43:29.764Z,9.93
2018-08-04T07:45:58.038Z,9.07
2018-08-04T07:48:26.424Z,7.93
2018-08-04T07:50:55.092Z,7.80
2018-08-04T07:53:23.508Z,10.13
2018-08-04T07:55:51.957Z,7.27
2018-08-04T07:58:20.348Z,8.93
2018-08-04T08:00:48.741Z,8.13
2018-08-04T08:03:17.078Z,7.53
2018-08-04T08:05:46.125Z,8.33
2018-08-04T08:08:14.461Z,9.17
2018-08-04T08:10:42.576Z,6.27
2018-08-04T08:13:10.684Z,7.03
2018-08-04T08:15:39.121Z,6.03
2018-08-04T08:18:07.511Z,8.53
2018-08-04T08:20:35.857Z,8.47
2018-08-04T08:23:04.225Z,7.67
2018-08-04T08:25:32.592Z,6.77
2018-08-04T08:28:01.015Z,8.30
2018-08-04T08:30:29.409Z,7.73
2018-08-04T08:32:57.738Z,7.63
2018-08-04T08:35:26.113Z,8.27
2018-08-04T08:37:54.487Z,6.70
2018-08-04T08:40:23.532Z,7.53
2018-08-04T08:42:51.841Z,8.00
2018-08-04T08:45:20.182Z,7.33
2018-08-04T08:47:48.563Z,15.57
2018-08-04T08:50:17.542Z,10.33
2018-08-04T08:52:45.903Z,8.83
2018-08-04T08:55:13.982Z,7.37
2018-08-04T08:57:42.382Z,5.77
2018-08-04T09:00:11.640Z,6.17
2018-08-04T09:02:39.843Z,15.77
2018-08-04T09:05:09.375Z,6.67
2018-08-04T09:07:37.769Z,6.80
2018-08-04T09:10:08.656Z,6.13
2018-08-04T09:12:37.081Z,11.37
2018-08-04T09:15:05.782Z,9.37
2018-08-04T09:17:34.209Z,7.43
2018-08-04T09:20:02.583Z,6.73
2018-08-04T09:22:31.037Z,6.83
2018-08-04T09:24:59.471Z,6.97
2018-08-04T09:27:27.923Z,6.13
2018-08-04T09:29:57.048Z,6.50
2018-08-04T09:32:25.457Z,6.80
2018-08-04T09:34:53.872Z,6.83
2018-08-04T09:37:21.949Z,7.30
2018-08-04T09:39:50.337Z,7.50
2018-08-04T09:42:18.829Z,10.37
2018-08-04T09:44:47.242Z,8.67
2018-08-04T09:47:15.581Z,8.17
2018-08-04T09:49:44.100Z,7.17
2018-08-04T09:52:12.480Z,7.00
2018-08-04T09:54:40.846Z,6.67
2018-08-04T09:57:09.242Z,7.10
2018-08-04T09:59:37.619Z,7.50
2018-08-04T10:02:10.960Z,7.47
2018-08-04T10:04:39.535Z,6.90
2018-08-04T10:07:08.245Z,5.33
2018-08-04T10:09:36.644Z,6.07
2018-08-04T10:12:05.139Z,6.17
2018-08-04T10:14:33.629Z,6.27
2018-08-04T10:17:02.017Z,6.73
2018-08-04T10:19:30.394Z,5.73
2018-08-04T10:21:58.805Z,6.77
2018-08-04T10:24:27.215Z,6.13
2018-08-04T10:26:55.617Z,7.77
2018-08-04T10:29:23.967Z,6.17
2018-08-04T10:31:52.449Z,6.00
2018-08-04T10:34:20.887Z,6.33
2018-08-04T10:36:50.057Z,6.20
2018-08-04T10:39:18.427Z,5.40
2018-08-04T10:41:46.915Z,6.03
2018-08-04T10:44:15.375Z,6.30
2018-08-04T10:46:55.539Z,10.93
2018-08-04T10:49:23.956Z,6.40
2018-08-04T10:51:52.381Z,8.33
2018-08-04T10:54:20.825Z,6.63
2018-08-04T10:56:49.231Z,6.70
2018-08-04T10:59:17.677Z,6.77
2018-08-04T11:01:46.109Z,6.23
2018-08-04T11:04:14.545Z,6.37
2018-08-04T11:06:46.922Z,5.50
2018-08-04T11:09:14.992Z,9.53
2018-08-04T11:11:43.139Z,6.70
2018-08-04T11:14:11.549Z,8.47
2018-08-04T11:16:39.938Z,5.47
2018-08-04T11:19:08.378Z,5.35
2018-08-04T11:21:36.492Z,5.03
2018-08-04T11:24:05.487Z,5.67
2018-08-04T11:26:33.895Z,5.85
2018-08-04T11:29:02.327Z,5.30
2018-08-04T11:31:31.359Z,4.87
2018-08-04T11:33:59.742Z,3.83
2018-08-04T11:36:28.105Z,3.30
2018-08-04T11:38:56.475Z,3.90
2018-08-04T11:41:24.543Z,3.67
2018-08-04T11:43:53.243Z,4.77
2018-08-04T11:46:23.292Z,4.00
2018-08-04T11:48:51.731Z,3.33
2018-08-04T11:51:21.331Z,3.60
2018-08-04T11:53:49.767Z,3.90
2018-08-04T11:56:18.130Z,3.85
2018-08-04T11:58:46.480Z,8.00
2018-08-04T12:01:14.862Z,5.17
2018-08-04T12:03:43.550Z,4.55
2018-08-04T12:06:11.993Z,5.47
2018-08-04T12:08:40.460Z,4.77
2018-08-04T12:11:08.890Z,4.22
2018-08-04T12:13:37.480Z,4.93
2018-08-04T12:16:05.980Z,4.53
2018-08-04T12:18:34.439Z,7.20
2018-08-04T12:21:02.840Z,5.00
2018-08-04T12:23:31.246Z,4.45
2018-08-04T12:25:59.653Z,4.12
2018-08-04T12:28:27.734Z,3.17
2018-08-04T12:30:55.839Z,4.37
2018-08-04T12:33:24.242Z,3.98
2018-08-04T12:35:52.640Z,4.28
2018-08-04T12:38:21.148Z,7.62
2018-08-04T12:40:50.228Z,3.77
2018-08-04T12:43:18.623Z,4.20
2018-08-04T12:45:46.676Z,4.12
2018-08-04T12:48:14.935Z,4.20
2018-08-04T12:50:43.352Z,4.20
2018-08-04T12:53:11.959Z,4.15
2018-08-04T12:55:40.319Z,5.95
2018-08-04T12:58:08.786Z,4.22
2018-08-04T13:00:37.203Z,8.33
2018-08-04T13:03:05.646Z,3.95
2018-08-04T13:05:33.782Z,4.33
2018-08-04T13:08:02.201Z,4.37
2018-08-04T13:10:30.620Z,4.08
2018-08-04T13:12:59.032Z,4.58
2018-08-04T13:15:27.389Z,4.25
2018-08-04T13:17:55.796Z,5.22
2018-08-04T13:20:24.235Z,5.95
2018-08-04T13:22:52.672Z,4.28
2018-08-04T13:25:20.816Z,4.45
2018-08-04T13:27:49.220Z,4.65
2018-08-04T13:30:17.652Z,4.87
2018-08-04T13:32:46.128Z,5.70
2018-08-04T13:35:14.548Z,5.58
2018-08-04T13:37:42.962Z,7.03
2018-08-04T13:40:11.043Z,4.00
2018-08-04T13:42:39.458Z,4.20
2018-08-04T13:45:08.456Z,4.22
2018-08-04T13:47:36.924Z,4.15
2018-08-04T13:50:05.638Z,4.65
2018-08-04T13:52:34.220Z,5.70
2018-08-04T13:55:02.642Z,5.22
2018-08-04T13:57:31.120Z,3.90
2018-08-04T13:59:59.574Z,3.92
2018-08-04T14:02:28.187Z,3.75
2018-08-04T14:04:56.575Z,4.37
2018-08-04T14:07:25.299Z,4.58
2018-08-04T14:09:53.806Z,4.60
2018-08-04T14:12:22.345Z,4.62
2018-08-04T14:14:50.748Z,4.47
2018-08-04T14:17:19.200Z,5.85
2018-08-04T14:19:47.647Z,4.10
2018-08-04T14:22:16.108Z,7.37
2018-08-04T14:24:44.496Z,3.83
2018-08-04T14:27:12.931Z,4.17
2018-08-04T14:29:41.332Z,13.32
2018-08-04T14:32:09.740Z,4.40
2018-08-04T14:34:37.815Z,3.90
2018-08-04T14:37:05.894Z,5.50
2018-08-04T14:39:34.144Z,3.62
2018-08-04T14:42:02.555Z,4.45
2018-08-04T14:44:30.980Z,7.22
2018-08-04T14:46:59.419Z,4.15
2018-08-04T14:49:27.998Z,4.20
2018-08-04T14:51:56.375Z,4.95
2018-08-04T14:54:24.802Z,3.80
2018-08-04T14:56:53.334Z,3.83
2018-08-04T14:59:21.734Z,3.90
2018-08-04T15:01:50.154Z,4.05
2018-08-04T15:04:18.562Z,4.10
2018-08-04T15:06:46.991Z,4.12
2018-08-04T15:09:15.542Z,3.58
2018-08-04T15:11:44.004Z,4.03
2018-08-04T15:14:12.390Z,3.90
2018-08-04T15:16:40.795Z,5.53
2018-08-04T15:19:09.256Z,5.00
2018-08-04T15:21:37.876Z,4.03
2018-08-04T15:24:06.319Z,4.37
2018-08-04T15:26:34.385Z,3.30
2018-08-04T15:29:02.652Z,4.10
2018-08-04T15:31:31.049Z,4.53
2018-08-04T15:33:59.507Z,3.72
2018-08-04T15:36:27.890Z,4.15
2018-08-04T15:38:56.405Z,4.03
2018-08-04T15:41:24.772Z,4.12
2018-08-04T15:43:53.162Z,3.77
2018-08-04T15:46:21.564Z,3.35
2018-08-04T15:48:49.926Z,4.05
2018-08-04T15:51:18.319Z,3.60
2018-08-04T15:53:46.927Z,6.92
2018-08-04T15:56:15.321Z,4.28
2018-08-04T15:58:43.697Z,4.10
2018-08-04T16:01:12.761Z,4.03
2018-08-04T16:03:41.157Z,3.95
2018-08-04T16:06:09.619Z,4.30
2018-08-04T16:08:38.065Z,4.33
2018-08-04T16:11:06.192Z,4.80
2018-08-04T16:13:34.575Z,4.17
2018-08-04T16:16:03.087Z,3.85
2018-08-04T16:18:31.497Z,5.33
2018-08-04T16:20:59.940Z,5.37
2018-08-04T16:23:28.392Z,4.03
2018-08-04T16:25:56.823Z,3.72
2018-08-04T16:28:25.313Z,4.10
2018-08-04T16:30:54.539Z,5.15
2018-08-04T16:33:23.020Z,6.87
2018-08-04T16:35:51.409Z,4.80
2018-08-04T16:38:19.892Z,4.33
2018-08-04T16:40:48.309Z,6.20
2018-08-04T16:43:16.765Z,3.60
2018-08-04T16:45:45.140Z,3.50
2018-08-04T16:48:13.541Z,3.87
2018-08-04T16:50:42.062Z,4.42
2018-08-04T16:53:10.454Z,3.83
2018-08-04T16:55:38.984Z,4.47
2018-08-04T16:58:07.388Z,3.95
2018-08-04T17:00:35.823Z,7.67
2018-08-04T17:03:04.296Z,4.33
2018-08-04T17:05:32.693Z,3.92
2018-08-04T17:08:01.073Z,3.87
2018-08-04T17:10:29.452Z,3.52
2018-08-04T17:12:57.958Z,3.72
2018-08-04T17:15:26.956Z,3.35
2018-08-04T17:17:55.380Z,3.50
2018-08-04T17:20:23.822Z,3.95
2018-08-04T17:22:52.037Z,3.22
2018-08-04T17:25:20.493Z,4.15
2018-08-04T17:27:48.932Z,3.75
2018-08-04T17:30:17.343Z,3.87
2018-08-04T17:32:46.632Z,5.63
2018-08-04T17:35:14.692Z,4.17
2018-08-04T17:37:42.848Z,7.07
2018-08-04T17:40:11.249Z,4.70
2018-08-04T17:42:39.648Z,5.23
2018-08-04T17:45:08.578Z,4.30
2018-08-04T17:47:37.042Z,3.97
2018-08-04T17:50:05.472Z,4.47
2018-08-04T17:52:33.904Z,4.20
2018-08-04T17:55:02.326Z,4.60
2018-08-04T17:57:30.724Z,3.00
2018-08-04T17:59:59.266Z,4.17
2018-08-04T18:02:27.664Z,3.47
2018-08-04T18:04:56.046Z,3.80
2018-08-04T18:07:24.462Z,3.60
2018-08-04T18:09:52.840Z,4.77
2018-08-04T18:12:21.348Z,4.63
2018-08-04T18:14:49.741Z,27.33
2018-08-04T18:17:18.144Z,21.60
2018-08-04T18:19:46.800Z,12.33
2018-08-04T18:22:27.860Z,6.53
2018-08-04T18:24:56.816Z,5.03
2018-08-04T18:27:25.355Z,6.00
2018-08-04T18:29:53.754Z,9.60
2018-08-04T18:32:22.993Z,9.13
2018-08-04T18:34:51.335Z,9.17
2018-08-04T18:37:19.705Z,9.50
2018-08-04T18:39:47.781Z,7.40
2018-08-04T18:42:16.204Z,5.53
2018-08-04T18:44:44.626Z,6.43
2018-08-04T18:47:13.420Z,10.53
2018-08-04T18:49:41.936Z,9.03
2018-08-04T18:52:10.365Z,7.20
2018-08-04T18:54:38.766Z,6.87
2018-08-04T18:57:07.538Z,7.73
2018-08-04T18:59:36.556Z,5.23
2018-08-04T19:02:05.000Z,6.40
2018-08-04T19:04:33.400Z,7.47
2018-08-04T19:07:02.627Z,4.83
2018-08-04T19:09:31.034Z,4.70
2018-08-04T19:11:59.444Z,4.80
2018-08-04T19:14:27.875Z,4.20
2018-08-04T19:16:56.363Z,4.10
2018-08-04T19:19:24.771Z,3.90
2018-08-04T19:21:53.137Z,4.27
2018-08-04T19:24:21.528Z,5.83
2018-08-04T19:26:49.934Z,4.23
2018-08-04T19:29:18.836Z,3.93
2018-08-04T19:31:47.420Z,4.13
2018-08-04T19:34:16.451Z,4.30
2018-08-04T19:36:44.868Z,5.40
2018-08-04T19:39:13.429Z,4.53
2018-08-04T19:41:41.864Z,3.47
2018-08-04T19:44:10.281Z,3.43
2018-08-04T19:46:38.815Z,2.93
2018-08-04T19:49:07.246Z,2.87
2018-08-04T19:51:35.751Z,2.20
2018-08-04T19:54:04.218Z,3.23
2018-08-04T19:56:32.727Z,4.10
2018-08-04T19:59:01.144Z,3.07
2018-08-04T20:01:29.684Z,3.20
2018-08-04T20:03:58.299Z,2.53
2018-08-04T20:06:26.742Z,2.17
2018-08-04T20:08:55.292Z,2.70
2018-08-04T20:11:23.692Z,2.67
2018-08-04T20:13:52.126Z,2.20
2018-08-04T20:16:21.360Z,1.90
2018-08-04T20:18:49.829Z,1.70
2018-08-04T20:21:18.300Z,4.40
2018-08-04T20:23:46.792Z,2.13
2018-08-04T20:26:15.240Z,5.70
2018-08-04T20:28:43.698Z,3.30
2018-08-04T20:31:12.199Z,1.93
2018-08-04T20:33:40.876Z,4.43
2018-08-04T20:36:09.359Z,2.27
2018-08-04T20:38:38.274Z,6.53
2018-08-04T20:41:06.801Z,3.23
2018-08-04T20:43:35.194Z,4.60
2018-08-04T20:46:04.006Z,2.53
2018-08-04T20:48:32.531Z,1.50
2018-08-04T20:51:00.944Z,1.87
2018-08-04T20:53:29.468Z,1.57
2018-08-04T20:55:57.913Z,1.30
2018-08-04T20:58:26.609Z,5.03
2018-08-04T21:01:06.148Z,2.03
2018-08-04T21:03:34.629Z,1.77
2018-08-04T21:06:03.593Z,1.33
2018-08-04T21:08:32.109Z,1.33
2018-08-04T21:11:00.541Z,1.37
2018-08-04T21:13:28.917Z,3.93
2018-08-04T21:15:57.047Z,1.40
2018-08-04T21:18:25.465Z,1.70
2018-08-04T21:20:53.886Z,1.33
2018-08-04T21:23:22.311Z,3.00
2018-08-04T21:25:51.345Z,1.67
2018-08-04T21:28:19.764Z,7.10
2018-08-04T21:30:48.281Z,2.87
2018-08-04T21:33:16.685Z,1.10
2018-08-04T21:35:45.144Z,1.50
2018-08-04T21:38:13.611Z,2.37
2018-08-04T21:40:41.737Z,1.57
2018-08-04T21:43:10.126Z,1.20
2018-08-04T21:45:38.548Z,1.00
2018-08-04T21:48:06.938Z,1.23
2018-08-04T21:50:35.508Z,1.33
2018-08-04T21:53:03.825Z,1.57
2018-08-04T21:55:33.195Z,1.17
2018-08-04T21:58:01.277Z,2.27
2018-08-04T22:00:30.556Z,1.50
2018-08-04T22:03:00.660Z,0.80
2018-08-04T22:05:29.658Z,0.70
2018-08-04T22:08:10.655Z,3.67
2018-08-04T22:10:39.100Z,1.20
2018-08-04T22:13:07.575Z,1.30
2018-08-04T22:15:35.669Z,2.97
2018-08-04T22:18:04.173Z,4.93
2018-08-04T22:20:32.714Z,1.20
2018-08-04T22:23:01.178Z,1.17
2018-08-04T22:25:30.379Z,2.63
2018-08-04T22:27:59.228Z,1.43
2018-08-04T22:30:27.636Z,3.13
2018-08-04T22:32:56.019Z,1.30
2018-08-04T22:35:24.453Z,4.10
2018-08-04T22:37:52.692Z,2.53
2018-08-04T22:40:21.806Z,1.10
2018-08-04T22:42:50.190Z,1.67
2018-08-04T22:46:02.778Z,6.03
2018-08-04T22:48:31.200Z,1.30
2018-08-04T22:50:59.280Z,2.53
2018-08-04T22:53:27.652Z,3.33
2018-08-04T22:55:55.716Z,1.70
2018-08-04T22:58:23.806Z,1.37
2018-08-04T23:00:52.200Z,5.50
2018-08-04T23:03:20.642Z,1.83
2018-08-04T23:05:49.020Z,1.10
2018-08-04T23:08:17.466Z,2.97
2018-08-04T23:10:46.372Z,1.20
2018-08-04T23:13:15.349Z,1.70
2018-08-04T23:15:43.776Z,1.27
2018-08-04T23:18:12.272Z,2.77
2018-08-04T23:20:40.797Z,2.37
2018-08-04T23:23:10.326Z,3.47
2018-08-04T23:25:38.694Z,1.40
2018-08-04T23:28:07.729Z,1.77
2018-08-04T23:30:35.889Z,3.13
2018-08-04T23:33:04.426Z,1.47
2018-08-04T23:35:32.798Z,1.93
2018-08-04T23:38:01.340Z,1.20
2018-08-04T23:40:29.798Z,1.13
2018-08-04T23:42:58.176Z,1.70
2018-08-04T23:45:26.640Z,2.70
2018-08-04T23:47:55.108Z,1.73
2018-08-04T23:50:23.512Z,2.60
2018-08-04T23:52:51.934Z,4.30
2018-08-04T23:55:20.294Z,2.30
2018-08-04T23:57:48.716Z,1.77
